Terminal Aerodrome Forecast
Issued by NWS Wilmington, OH

Home | Current Version | Previous Version | Text Only | Print | Product List | Glossary On
Versions: 1 2 3 4 5 6 7 8 9 10 11 12 13 14 15 16 17 18 19 20 21 22 23 24 25 26 27 28
000
FTUS41 KILN 031853 AAA
TAFCMH
TAF AMD
KCMH 031853Z 0319/0418 24015G21KT P6SM VCSH FEW045 SCT200
     FM032000 24012G22KT P6SM VCTS BKN040CB
     FM032200 28012KT P6SM BKN040
     FM040200 31006KT P6SM SCT050
     FM041400 29005KT P6SM FEW040=

USA.gov is the U.S. government's official web portal to all federal, state and local government web resources and services.